Time;durP1;ratioP1;P1;durP2;ratioP2;P2;SDS_P1;SDS_P2;PMS_P1;PMS_P2;Temp;Humidity;BMP_temperature;BMP_pressure;BME280_temperature;BME280_humidity;BME280_pressure;Samples;Min_cycle;Max_cycle;Signal;HPM_P1;HPM_P2
2023/07/04 00:00:59;;;;;;;4.40;2.33;;;;;;;23.34;56.78;100112.38;5051808;28;20441;-62
2023/07/04 00:03:25;;;;;;;3.40;1.97;;;;;;;23.33;56.77;100120.19;5050519;28;20549;-63
2023/07/04 00:05:55;;;;;;;3.23;1.80;;;;;;;23.33;56.39;100117.31;5065807;28;20444;-62
2023/07/04 00:08:21;;;;;;;3.30;1.93;;;;;;;23.33;56.70;100113.63;5081856;28;20461;-62
2023/07/04 00:10:47;;;;;;;4.37;2.07;;;;;;;23.33;56.92;100123.06;5069219;28;20421;-62
2023/07/04 00:13:13;;;;;;;5.60;1.90;;;;;;;23.33;56.41;100113.63;5069897;28;20752;-63
2023/07/04 00:15:49;;;;;;;4.50;2.17;;;;;;;23.33;56.83;100120.19;5087651;28;20310;-62
2023/07/04 00:18:15;;;;;;;3.90;2.10;;;;;;;23.32;56.65;100132.97;5070708;28;20324;-62
2023/07/04 00:20:40;;;;;;;5.37;2.10;;;;;;;23.33;57.05;100119.38;5072265;28;20983;-62
2023/07/04 00:23:06;;;;;;;3.83;2.07;;;;;;;23.32;57.16;100123.47;5063475;28;20427;-62
2023/07/04 00:25:32;;;;;;;2.93;1.77;;;;;;;23.32;56.97;100118.56;5089310;28;20174;-63
2023/07/04 00:27:57;;;;;;;2.60;1.47;;;;;;;23.32;57.17;100112.78;5089108;28;20537;-63
2023/07/04 00:30:25;;;;;;;3.87;2.00;;;;;;;23.32;56.92;100123.47;5075574;28;20432;-63
2023/07/04 00:32:51;;;;;;;3.70;1.90;;;;;;;23.32;57.07;100117.72;5079859;28;20186;-62
2023/07/04 00:35:16;;;;;;;3.13;1.80;;;;;;;23.31;56.97;100128.44;5081130;28;20495;-62
2023/07/04 00:37:43;;;;;;;4.50;2.00;;;;;;;23.32;57.06;100129.25;5049670;28;20164;-62
2023/07/04 00:40:12;;;;;;;3.30;1.90;;;;;;;23.31;57.13;100122.69;5066908;28;20191;-63
2023/07/04 00:42:37;;;;;;;3.20;1.90;;;;;;;23.31;56.99;100139.97;5069409;28;20512;-63
2023/07/04 00:45:22;;;;;;;3.50;2.20;;;;;;;23.31;57.01;100121.84;5068966;28;20417;-62
2023/07/04 00:47:53;;;;;;;3.50;1.90;;;;;;;23.30;56.99;100135.44;5054482;28;20662;-62
2023/07/04 00:50:23;;;;;;;4.20;2.03;;;;;;;23.31;57.18;100136.25;5047461;28;20433;-62
2023/07/04 00:52:48;;;;;;;3.20;1.50;;;;;;;23.30;56.93;100138.34;5068115;28;21150;-63
2023/07/04 00:55:14;;;;;;;3.50;1.80;;;;;;;23.30;57.20;100152.75;5062145;28;20494;-62
2023/07/04 00:57:40;;;;;;;2.80;1.60;;;;;;;23.31;57.28;100142.00;5073618;28;20509;-62
2023/07/04 01:00:37;;;;;;;3.40;1.60;;;;;;;23.30;57.11;100135.44;5071796;28;20260;-62
2023/07/04 01:03:05;;;;;;;3.23;1.93;;;;;;;23.31;57.47;100139.13;5084559;28;20237;-62
2023/07/04 01:05:39;;;;;;;4.07;1.90;;;;;;;23.31;57.70;100142.00;5092500;28;20505;-62
2023/07/04 01:08:09;;;;;;;2.30;1.53;;;;;;;23.31;57.98;100144.91;5091722;28;20529;-62
2023/07/04 01:10:43;;;;;;;4.17;1.73;;;;;;;23.30;57.41;100146.13;5072403;28;20426;-62
2023/07/04 01:13:33;;;;;;;3.20;1.63;;;;;;;23.29;57.71;100142.44;5068736;28;20429;-62
2023/07/04 01:16:01;;;;;;;3.83;1.70;;;;;;;23.30;57.43;100144.09;5081545;28;20416;-62
2023/07/04 01:18:26;;;;;;;3.27;1.80;;;;;;;23.30;57.72;100149.84;5074269;28;20909;-63
2023/07/04 01:20:52;;;;;;;2.97;1.47;;;;;;;23.30;57.55;100152.75;5072069;28;20409;-62
2023/07/04 01:23:30;;;;;;;2.97;1.93;;;;;;;23.30;57.48;100151.91;5056446;28;20189;-62
2023/07/04 01:26:12;;;;;;;3.43;1.97;;;;;;;23.30;57.88;100161.38;5076509;28;20170;-63
2023/07/04 01:28:38;;;;;;;3.97;2.00;;;;;;;23.29;57.50;100145.31;5070833;28;20551;-62
2023/07/04 01:31:05;;;;;;;2.70;1.77;;;;;;;23.29;57.92;100156.84;5035653;28;20425;-63
2023/07/04 01:33:31;;;;;;;3.80;1.63;;;;;;;23.29;57.67;100153.16;5068777;28;20171;-63
2023/07/04 01:35:56;;;;;;;4.17;1.60;;;;;;;23.29;57.68;100158.91;5054319;28;21378;-62
2023/07/04 01:38:22;;;;;;;3.43;1.87;;;;;;;23.30;57.60;100160.53;5068931;28;20202;-63
2023/07/04 01:40:47;;;;;;;3.13;1.80;;;;;;;23.29;57.77;100159.72;5069784;28;20603;-63
2023/07/04 01:43:12;;;;;;;3.57;1.93;;;;;;;23.30;57.97;100149.03;5069265;28;20631;-62
2023/07/04 01:45:38;;;;;;;2.90;1.73;;;;;;;23.29;57.52;100156.84;5083768;28;20232;-62
2023/07/04 01:48:04;;;;;;;3.40;1.77;;;;;;;23.29;57.90;100148.19;5089587;28;20170;-62
2023/07/04 01:50:29;;;;;;;3.43;2.10;;;;;;;23.28;57.59;100152.31;5082098;28;20239;-62
2023/07/04 01:52:54;;;;;;;2.40;1.17;;;;;;;23.28;58.15;100145.75;5071573;28;20159;-62
2023/07/04 01:55:20;;;;;;;3.10;1.80;;;;;;;23.28;57.99;100152.31;5064091;28;20197;-62
2023/07/04 01:57:46;;;;;;;5.93;2.03;;;;;;;23.28;58.00;100148.63;5091601;28;20165;-62
2023/07/04 02:00:12;;;;;;;3.00;2.00;;;;;;;23.28;58.03;100149.44;5088266;28;20217;-62
2023/07/04 02:02:39;;;;;;;3.60;1.67;;;;;;;23.28;57.76;100151.50;5091625;28;20240;-62
2023/07/04 02:05:05;;;;;;;4.00;1.60;;;;;;;23.28;57.82;100155.19;5091323;28;20454;-62
2023/07/04 02:07:30;;;;;;;2.97;1.80;;;;;;;23.28;57.97;100158.06;5072158;28;20483;-62
2023/07/04 02:09:56;;;;;;;4.33;1.80;;;;;;;23.28;58.09;100148.63;5074291;28;20476;-62
2023/07/04 02:12:21;;;;;;;2.77;1.60;;;;;;;23.28;58.27;100145.75;5059706;28;20225;-62
2023/07/04 02:14:46;;;;;;;5.90;2.00;;;;;;;23.27;57.99;100147.78;5082673;28;20625;-62
2023/07/04 02:17:12;;;;;;;2.53;1.70;;;;;;;23.27;58.02;100156.44;5072971;28;20634;-63
2023/07/04 02:19:37;;;;;;;3.83;1.63;;;;;;;23.27;58.10;100150.69;5088912;28;20202;-62
2023/07/04 02:22:03;;;;;;;3.07;2.00;;;;;;;23.27;58.05;100144.09;5071031;28;20237;-62
2023/07/04 02:24:28;;;;;;;2.60;1.80;;;;;;;23.27;58.28;100150.69;5073433;28;20179;-62
2023/07/04 02:26:54;;;;;;;2.27;1.40;;;;;;;23.27;58.38;100153.56;5070686;28;20159;-62
2023/07/04 02:29:19;;;;;;;3.13;1.67;;;;;;;23.26;58.04;100146.16;5051855;28;20175;-62
2023/07/04 02:31:45;;;;;;;4.13;1.70;;;;;;;23.26;58.39;100137.53;5055753;28;20649;-63
2023/07/04 02:34:10;;;;;;;3.73;1.93;;;;;;;23.26;58.04;100142.44;5078360;28;20187;-62
2023/07/04 02:36:35;;;;;;;2.63;1.43;;;;;;;23.26;58.48;100137.53;5078726;28;20170;-62
2023/07/04 02:39:01;;;;;;;2.60;1.67;;;;;;;23.26;58.22;100136.69;5085108;28;20209;-62
2023/07/04 02:41:29;;;;;;;3.80;1.63;;;;;;;23.26;58.01;100137.53;5069936;28;20182;-63
2023/07/04 02:43:55;;;;;;;4.83;1.93;;;;;;;23.26;58.63;100137.53;5088447;28;20154;-62
2023/07/04 02:46:21;;;;;;;4.17;1.57;;;;;;;23.25;58.24;100135.88;5085799;28;20443;-63
2023/07/04 02:48:46;;;;;;;2.70;1.80;;;;;;;23.25;58.17;100141.66;5090777;28;20425;-62
2023/07/04 02:51:12;;;;;;;4.77;2.10;;;;;;;23.25;58.29;100137.94;5083735;28;20190;-62
2023/07/04 02:53:37;;;;;;;2.60;1.43;;;;;;;23.25;58.27;100141.66;5078692;28;20189;-62
2023/07/04 02:56:03;;;;;;;3.23;1.60;;;;;;;23.24;58.17;100139.97;5090264;28;20179;-63
2023/07/04 02:58:28;;;;;;;6.50;2.00;;;;;;;23.25;57.96;100135.03;5086388;28;20197;-62
2023/07/04 03:00:53;;;;;;;3.37;1.80;;;;;;;23.26;58.30;100139.56;5090489;28;20212;-62
2023/07/04 03:03:21;;;;;;;3.50;1.80;;;;;;;23.25;58.39;100140.81;5082580;28;20230;-63
2023/07/04 03:05:46;;;;;;;3.00;1.77;;;;;;;23.25;58.50;100135.03;5070124;28;20186;-62
2023/07/04 03:08:12;;;;;;;4.03;1.63;;;;;;;23.23;58.00;100134.66;5070069;28;20433;-63
2023/07/04 03:10:37;;;;;;;2.57;1.50;;;;;;;23.24;58.16;100139.97;5079957;28;20214;-63
2023/07/04 03:13:03;;;;;;;3.10;1.73;;;;;;;23.23;58.25;100144.09;5090500;28;20182;-62
2023/07/04 03:15:28;;;;;;;2.30;1.50;;;;;;;23.24;58.33;100142.84;5087061;28;20189;-62
2023/07/04 03:17:54;;;;;;;3.00;1.40;;;;;;;23.22;58.34;100145.34;5089444;28;20241;-62
2023/07/04 03:20:19;;;;;;;2.73;1.63;;;;;;;23.24;58.26;100148.63;5070413;28;20883;-63
2023/07/04 03:22:45;;;;;;;2.50;1.47;;;;;;;23.22;58.55;100151.09;5071457;28;20324;-62
2023/07/04 03:25:11;;;;;;;3.60;1.80;;;;;;;23.23;58.28;100146.97;5067137;28;20202;-62
2023/07/04 03:27:37;;;;;;;4.27;2.13;;;;;;;23.22;58.20;100147.38;5051076;28;20753;-62
2023/07/04 03:30:04;;;;;;;3.50;1.80;;;;;;;23.23;58.33;100160.59;5047197;28;20159;-62
2023/07/04 03:32:31;;;;;;;2.87;1.63;;;;;;;23.22;58.06;100154.00;5065451;28;20429;-62
2023/07/04 03:35:00;;;;;;;3.17;1.83;;;;;;;23.22;58.34;100156.88;5047628;28;20425;-62
2023/07/04 03:37:27;;;;;;;3.47;2.03;;;;;;;23.22;58.04;100159.75;5068273;28;21111;-62
2023/07/04 03:39:53;;;;;;;2.77;1.70;;;;;;;23.21;58.20;100166.75;5049746;28;20969;-63
2023/07/04 03:42:18;;;;;;;5.83;1.93;;;;;;;23.22;58.22;100167.56;5053704;28;20442;-63
2023/07/04 03:44:44;;;;;;;4.60;2.30;;;;;;;23.22;58.13;100167.56;5068122;28;20186;-62
2023/07/04 03:47:10;;;;;;;2.40;1.50;;;;;;;23.22;58.45;100170.44;5086410;28;20269;-62
2023/07/04 03:49:35;;;;;;;3.30;1.50;;;;;;;23.21;58.25;100172.50;5084796;28;20447;-63
2023/07/04 03:52:00;;;;;;;6.13;2.10;;;;;;;23.21;58.59;100178.28;5088369;28;20163;-63
2023/07/04 03:54:26;;;;;;;3.60;1.53;;;;;;;23.22;58.37;100181.97;5088604;28;20231;-62
2023/07/04 03:56:51;;;;;;;4.13;2.27;;;;;;;23.21;58.32;100183.19;5086001;28;20174;-62
2023/07/04 03:59:17;;;;;;;2.97;1.60;;;;;;;23.20;58.25;100181.56;5088982;28;20254;-62
2023/07/04 04:01:42;;;;;;;3.80;1.83;;;;;;;23.20;58.47;100178.69;5089702;28;20542;-62
2023/07/04 04:04:08;;;;;;;2.57;1.87;;;;;;;23.20;58.41;100185.28;5088880;28;20681;-62
2023/07/04 04:06:33;;;;;;;3.67;1.90;;;;;;;23.21;58.12;100192.69;5078729;28;20202;-62
2023/07/04 04:08:59;;;;;;;3.50;1.97;;;;;;;23.21;58.22;100180.31;5053509;28;20171;-62
2023/07/04 04:11:24;;;;;;;4.83;2.70;;;;;;;23.20;58.47;100181.56;5089246;28;20277;-62
2023/07/04 04:13:49;;;;;;;2.90;1.73;;;;;;;23.20;58.57;100184.44;5070926;28;20174;-62
2023/07/04 04:16:15;;;;;;;3.13;1.87;;;;;;;23.20;58.44;100181.56;5086521;28;20279;-62
2023/07/04 04:18:40;;;;;;;3.63;2.03;;;;;;;23.20;58.34;100185.28;5090643;28;20677;-62
2023/07/04 04:21:07;;;;;;;4.00;1.87;;;;;;;23.19;58.41;100195.13;5071120;28;20182;-62
2023/07/04 04:23:33;;;;;;;3.20;1.60;;;;;;;23.19;58.52;100185.69;5088133;28;20186;-63
2023/07/04 04:25:58;;;;;;;4.90;2.30;;;;;;;23.19;58.43;100200.09;5057145;28;20518;-63
2023/07/04 04:28:24;;;;;;;3.07;1.63;;;;;;;23.18;58.24;100192.69;5067366;28;20182;-63
2023/07/04 04:30:49;;;;;;;3.93;1.80;;;;;;;23.17;58.39;100191.81;5071258;28;20631;-62
2023/07/04 04:33:16;;;;;;;2.90;1.70;;;;;;;23.19;58.37;100194.34;5059678;28;20271;-62
2023/07/04 04:35:43;;;;;;;3.77;1.73;;;;;;;23.17;58.29;100209.09;5086159;28;20178;-62
2023/07/04 04:38:10;;;;;;;3.83;2.17;;;;;;;23.18;58.34;100198.44;5072262;28;20441;-62
2023/07/04 04:40:36;;;;;;;3.80;2.20;;;;;;;23.17;58.42;100197.59;5077575;28;20464;-62
2023/07/04 04:43:02;;;;;;;3.50;2.13;;;;;;;23.18;58.55;100196.38;5072280;28;20533;-63
2023/07/04 04:45:28;;;;;;;4.67;1.97;;;;;;;23.19;58.84;100194.34;5076955;28;20182;-62
2023/07/04 04:47:54;;;;;;;3.57;1.70;;;;;;;23.21;58.56;100192.69;5074110;28;20452;-63
2023/07/04 04:50:23;;;;;;;3.30;2.00;;;;;;;23.21;58.52;100198.44;5071622;28;20421;-63
2023/07/04 04:52:48;;;;;;;4.17;2.20;;;;;;;23.21;58.52;100197.59;5071622;28;20626;-62
2023/07/04 04:55:15;;;;;;;3.73;1.80;;;;;;;23.21;58.71;100201.31;5053534;28;20417;-63
2023/07/04 04:57:40;;;;;;;4.23;2.47;;;;;;;23.23;58.80;100209.56;5072839;28;20273;-62
2023/07/04 05:00:07;;;;;;;5.87;2.30;;;;;;;23.23;58.70;100209.56;5074645;28;20475;-62
2023/07/04 05:02:33;;;;;;;3.93;2.50;;;;;;;23.22;59.18;100202.97;5079037;28;20190;-62
2023/07/04 05:05:01;;;;;;;6.20;2.33;;;;;;;23.19;58.83;100200.91;5072803;28;20417;-63
2023/07/04 05:07:27;;;;;;;4.07;2.07;;;;;;;23.19;59.23;100212.41;5078119;28;20226;-62
2023/07/04 05:09:53;;;;;;;4.90;2.33;;;;;;;23.18;59.20;100210.78;5072562;28;20430;-62
2023/07/04 05:12:18;;;;;;;3.60;1.83;;;;;;;23.18;59.42;100216.53;5072591;28;20417;-62
2023/07/04 05:14:44;;;;;;;4.80;2.40;;;;;;;23.21;59.31;100220.66;5082123;28;20187;-62
2023/07/04 05:17:09;;;;;;;3.50;2.03;;;;;;;23.23;59.55;100212.44;5073092;28;20186;-62
2023/07/04 05:19:35;;;;;;;5.70;2.53;;;;;;;23.23;59.34;100219.00;5063709;28;20207;-62
2023/07/04 05:22:00;;;;;;;5.20;2.33;;;;;;;23.24;59.29;100226.41;5053048;28;20190;-62
2023/07/04 05:24:26;;;;;;;8.83;2.20;;;;;;;23.25;59.86;100222.31;5071136;28;20182;-62
2023/07/04 05:26:51;;;;;;;4.00;2.63;;;;;;;23.25;59.92;100222.31;5061430;28;20545;-62
2023/07/04 05:29:17;;;;;;;9.00;2.60;;;;;;;23.26;59.71;100231.75;5091280;28;20601;-62
2023/07/04 05:31:42;;;;;;;9.97;2.67;;;;;;;23.27;59.67;100224.75;5091016;28;20165;-62
2023/07/04 05:34:07;;;;;;;4.43;2.30;;;;;;;23.27;59.75;100219.81;5076456;28;20186;-62
2023/07/04 05:36:33;;;;;;;7.83;2.93;;;;;;;23.28;59.62;100221.47;5070637;28;20186;-63
2023/07/04 05:39:00;;;;;;;7.87;2.07;;;;;;;23.26;59.66;100223.94;5052719;28;20205;-62
2023/07/04 05:41:26;;;;;;;6.20;2.60;;;;;;;23.25;60.04;100218.59;5051934;28;20209;-63
2023/07/04 05:43:55;;;;;;;6.40;3.00;;;;;;;23.22;60.02;100217.34;5056061;28;20425;-62
2023/07/04 05:46:21;;;;;;;6.57;2.80;;;;;;;23.23;60.07;100215.31;5084821;28;20421;-63
2023/07/04 05:48:46;;;;;;;5.17;2.67;;;;;;;23.23;59.74;100223.97;5062304;28;20475;-62
2023/07/04 05:51:14;;;;;;;4.67;2.50;;;;;;;23.25;60.30;100216.53;5053512;28;20171;-62
2023/07/04 05:53:43;;;;;;;8.00;2.80;;;;;;;23.26;59.94;100221.06;5053586;28;20537;-62
2023/07/04 05:56:18;;;;;;;4.90;2.20;;;;;;;23.26;59.68;100217.34;5054986;28;20789;-62
2023/07/04 05:58:45;;;;;;;6.37;2.50;;;;;;;23.26;60.22;100218.19;5073848;28;20547;-62
2023/07/04 06:01:25;;;;;;;4.67;2.63;;;;;;;23.27;60.30;100213.22;5074899;28;20408;-62
2023/07/04 06:03:51;;;;;;;5.10;2.43;;;;;;;23.26;60.71;100217.34;5091399;28;20458;-62
2023/07/04 06:06:28;;;;;;;4.40;2.80;;;;;;;23.25;60.66;100225.19;5068586;28;21312;-62
2023/07/04 06:08:55;;;;;;;5.73;2.70;;;;;;;23.24;60.35;100228.47;5071220;28;20410;-62
2023/07/04 06:11:21;;;;;;;8.27;2.83;;;;;;;23.27;60.50;100236.28;5070835;28;20471;-63
2023/07/04 06:13:46;;;;;;;4.67;2.37;;;;;;;23.28;60.26;100232.19;5079772;28;20430;-62
2023/07/04 06:16:11;;;;;;;6.23;2.87;;;;;;;23.27;60.43;100234.22;5062309;28;20497;-63
2023/07/04 06:18:37;;;;;;;4.53;2.47;;;;;;;23.25;60.57;100236.72;5070281;28;20194;-63
2023/07/04 06:21:12;;;;;;;3.90;2.43;;;;;;;23.25;60.37;100239.59;5085495;28;20166;-62
2023/07/04 06:23:38;;;;;;;4.47;2.63;;;;;;;23.25;60.07;100236.72;5052379;28;20163;-62
2023/07/04 06:26:05;;;;;;;5.93;3.10;;;;;;;23.24;60.02;100235.03;5088677;28;20416;-62
2023/07/04 06:28:30;;;;;;;5.83;2.47;;;;;;;23.25;59.93;100233.81;5079358;28;20190;-62
2023/07/04 06:30:56;;;;;;;4.93;2.57;;;;;;;23.25;60.07;100241.63;5082627;28;20436;-62
2023/07/04 06:33:21;;;;;;;3.87;2.60;;;;;;;23.23;60.08;100236.28;5077072;28;20179;-63
2023/07/04 06:35:46;;;;;;;6.67;2.60;;;;;;;23.24;60.49;100228.47;5056305;28;20630;-62
2023/07/04 06:38:12;;;;;;;5.30;3.00;;;;;;;23.23;60.37;100236.28;5071824;28;20170;-63
2023/07/04 06:40:37;;;;;;;3.73;2.03;;;;;;;23.22;59.98;100243.28;5087741;28;20214;-62
2023/07/04 06:43:04;;;;;;;4.23;2.50;;;;;;;23.22;60.30;100237.53;5071372;28;20178;-62
2023/07/04 06:45:33;;;;;;;4.20;2.57;;;;;;;23.21;60.03;100233.00;5057233;28;20301;-62
2023/07/04 06:47:59;;;;;;;8.13;2.90;;;;;;;23.20;59.56;100234.25;5070490;28;20418;-62
2023/07/04 06:50:24;;;;;;;7.47;2.40;;;;;;;23.22;59.84;100233.81;5071247;28;21066;-62
2023/07/04 06:52:50;;;;;;;5.90;2.90;;;;;;;23.22;59.82;100239.56;5071726;28;20274;-62
2023/07/04 06:55:15;;;;;;;5.83;2.67;;;;;;;23.21;59.79;100243.69;5080456;28;20167;-62
2023/07/04 06:57:41;;;;;;;6.43;3.13;;;;;;;23.22;59.73;100251.09;5087200;28;20545;-62
2023/07/04 07:00:07;;;;;;;4.60;2.87;;;;;;;23.23;59.94;100250.69;5090516;28;20198;-62
2023/07/04 07:02:32;;;;;;;4.30;2.40;;;;;;;23.24;59.69;100258.09;5053672;28;20174;-62
2023/07/04 07:04:58;;;;;;;7.27;3.20;;;;;;;23.24;59.56;100258.09;5090417;28;20922;-62
2023/07/04 07:07:23;;;;;;;5.00;2.60;;;;;;;23.23;59.39;100256.44;5089731;28;20274;-63
2023/07/04 07:09:49;;;;;;;6.63;2.50;;;;;;;23.23;59.11;100262.22;5077918;28;20171;-62
2023/07/04 07:12:14;;;;;;;5.83;2.40;;;;;;;23.22;59.13;100263.44;5069009;28;20163;-62
2023/07/04 07:14:40;;;;;;;5.20;2.40;;;;;;;23.21;58.58;100261.81;5070822;28;20515;-62
2023/07/04 07:17:06;;;;;;;5.63;2.53;;;;;;;23.20;59.13;100260.19;5087689;28;20193;-62
2023/07/04 07:19:31;;;;;;;4.30;2.70;;;;;;;23.21;59.21;100258.94;5070419;28;20202;-62
2023/07/04 07:21:59;;;;;;;6.53;2.50;;;;;;;23.21;58.89;100264.69;5089824;28;20427;-62
2023/07/04 07:24:24;;;;;;;4.40;2.47;;;;;;;23.21;58.87;100264.69;5083863;28;20182;-62
2023/07/04 07:26:50;;;;;;;5.07;2.37;;;;;;;23.21;58.69;100267.56;5070061;28;20405;-62
2023/07/04 07:29:15;;;;;;;6.03;2.57;;;;;;;23.21;58.60;100267.56;5052357;28;20682;-62
2023/07/04 07:31:41;;;;;;;5.70;2.43;;;;;;;23.21;58.86;100269.63;5072017;28;20179;-62
2023/07/04 07:34:06;;;;;;;5.80;2.53;;;;;;;23.20;58.32;100271.69;5069817;28;20823;-62
2023/07/04 07:36:40;;;;;;;5.33;2.53;;;;;;;23.19;58.25;100270.03;5071368;28;20206;-62
2023/07/04 07:39:07;;;;;;;5.57;2.87;;;;;;;23.21;57.97;100272.50;5069160;28;20224;-62
2023/07/04 07:41:34;;;;;;;5.27;2.60;;;;;;;23.22;58.09;100269.22;5068884;28;20451;-62
2023/07/04 07:44:00;;;;;;;5.67;2.57;;;;;;;23.22;58.13;100271.25;5069065;28;20773;-62
2023/07/04 07:46:25;;;;;;;4.80;2.87;;;;;;;23.21;57.79;100272.50;5061431;28;20432;-62
2023/07/04 07:48:50;;;;;;;7.87;3.30;;;;;;;23.20;58.14;100265.94;5085981;28;20235;-62
2023/07/04 07:51:16;;;;;;;8.63;2.30;;;;;;;23.19;58.11;100272.91;5089833;28;20185;-62
2023/07/04 07:53:44;;;;;;;5.20;2.93;;;;;;;23.19;57.63;100270.03;5078975;28;20202;-62
2023/07/04 07:56:10;;;;;;;6.03;3.07;;;;;;;23.20;57.75;100265.94;5087066;28;20429;-62
2023/07/04 07:58:36;;;;;;;4.60;2.93;;;;;;;23.20;57.74;100267.97;5086327;28;20585;-62
2023/07/04 08:01:12;;;;;;;8.07;3.63;;;;;;;23.19;57.79;100260.59;5085034;28;20446;-62
2023/07/04 08:03:38;;;;;;;5.33;2.23;;;;;;;23.18;57.46;100259.75;5088530;28;20358;-62
2023/07/04 08:06:03;;;;;;;5.23;3.10;;;;;;;23.19;57.38;100260.59;5071654;28;20436;-62
2023/07/04 08:08:28;;;;;;;8.00;2.87;;;;;;;23.19;57.37;100263.47;5049871;28;20193;-63
2023/07/04 08:10:54;;;;;;;5.37;3.20;;;;;;;23.18;57.33;100259.75;5086344;28;20181;-62
2023/07/04 08:13:19;;;;;;;7.40;3.20;;;;;;;23.19;57.49;100260.59;5086377;28;20836;-62
2023/07/04 08:15:54;;;;;;;7.87;3.13;;;;;;;23.18;57.36;100256.06;5077557;28;20175;-62
2023/07/04 08:18:20;;;;;;;7.53;3.07;;;;;;;23.19;57.47;100251.94;5082765;28;20256;-62
2023/07/04 08:20:56;;;;;;;8.10;3.13;;;;;;;23.18;57.03;100251.09;5065950;28;20516;-63
2023/07/04 08:23:21;;;;;;;7.13;2.90;;;;;;;23.18;56.47;100253.97;5075176;28;20181;-62
2023/07/04 08:25:46;;;;;;;6.10;2.93;;;;;;;23.18;57.33;100251.09;5070625;28;20437;-62
2023/07/04 08:28:12;;;;;;;4.90;2.80;;;;;;;23.19;56.92;100251.94;5050031;28;20179;-62
2023/07/04 08:30:37;;;;;;;11.93;3.27;;;;;;;23.19;56.81;100258.50;5078934;28;20843;-63
2023/07/04 08:33:03;;;;;;;8.70;2.80;;;;;;;23.19;56.96;100251.94;5080734;28;20179;-62
2023/07/04 08:35:28;;;;;;;8.27;3.50;;;;;;;23.19;56.75;100252.75;5080970;28;20175;-62
2023/07/04 08:37:53;;;;;;;8.90;3.10;;;;;;;23.18;56.97;100253.19;5084149;28;20182;-62
2023/07/04 08:40:19;;;;;;;8.13;3.37;;;;;;;23.19;56.82;100251.94;5087829;28;20198;-62
2023/07/04 08:42:45;;;;;;;4.23;2.77;;;;;;;23.18;56.64;100251.09;5070796;28;20178;-63
2023/07/04 08:45:16;;;;;;;8.40;3.37;;;;;;;23.19;56.96;100249.06;5053467;28;20186;-62
2023/07/04 08:47:42;;;;;;;6.07;2.93;;;;;;;23.18;56.45;100244.53;5070699;28;20227;-63
2023/07/04 08:50:27;;;;;;;11.30;3.70;;;;;;;23.19;56.73;100251.94;5059506;28;20536;-62
2023/07/04 08:53:16;;;;;;;6.10;2.97;;;;;;;23.18;56.44;100239.59;5062015;28;20186;-62
2023/07/04 08:55:46;;;;;;;6.53;3.27;;;;;;;23.18;56.07;100236.69;5066098;28;20788;-63
2023/07/04 08:58:12;;;;;;;5.27;3.23;;;;;;;23.18;56.64;100233.81;5052506;28;20435;-63
2023/07/04 09:00:39;;;;;;;6.33;3.73;;;;;;;23.17;56.01;100237.91;5065118;28;20550;-62
2023/07/04 09:03:16;;;;;;;8.90;3.30;;;;;;;23.19;56.63;100243.31;5065025;28;20709;-62
2023/07/04 09:06:01;;;;;;;7.53;3.17;;;;;;;23.19;56.64;100240.41;5066583;28;20444;-62
2023/07/04 09:09:01;;;;;;;7.20;3.27;;;;;;;23.19;56.22;100246.19;5050653;28;20984;-62
2023/07/04 09:11:27;;;;;;;9.67;2.93;;;;;;;23.19;56.27;100240.41;5075619;28;20792;-62
2023/07/04 09:13:58;;;;;;;8.43;3.13;;;;;;;23.18;56.07;100236.69;5063895;28;20413;-62
2023/07/04 09:16:43;;;;;;;7.03;3.30;;;;;;;23.20;56.35;100236.28;5040759;28;20194;-62
2023/07/04 09:19:10;;;;;;;7.73;3.10;;;;;;;23.19;55.83;100244.09;5073728;28;20491;-62
2023/07/04 09:21:39;;;;;;;8.13;3.57;;;;;;;23.19;55.11;100241.22;5091203;28;20422;-63
2023/07/04 09:24:05;;;;;;;5.73;2.93;;;;;;;23.19;55.65;100240.41;5058415;28;21027;-62
2023/07/04 09:26:42;;;;;;;7.43;3.43;;;;;;;23.19;55.57;100240.41;5071571;28;20483;-62
2023/07/04 09:29:07;;;;;;;12.47;3.40;;;;;;;23.20;55.13;100247.81;5071517;28;20711;-62
2023/07/04 09:31:36;;;;;;;8.30;3.43;;;;;;;23.20;54.90;100236.28;5068108;28;20425;-62
2023/07/04 09:34:03;;;;;;;8.87;3.50;;;;;;;23.21;54.34;100238.78;5055084;28;20573;-62
2023/07/04 09:36:32;;;;;;;6.60;3.67;;;;;;;23.20;55.27;100239.19;5071826;28;20428;-62
2023/07/04 09:39:04;;;;;;;7.17;4.10;;;;;;;23.20;53.82;100242.88;5056788;28;21010;-62
2023/07/04 09:41:31;;;;;;;10.07;4.00;;;;;;;23.22;53.43;100236.69;5072346;28;20514;-63
2023/07/04 09:44:19;;;;;;;11.73;3.87;;;;;;;23.22;53.68;100231.75;5085630;28;20576;-63
2023/07/04 09:46:51;;;;;;;8.70;3.90;;;;;;;23.22;53.70;100228.88;5058050;28;20508;-63
2023/07/04 09:49:30;;;;;;;9.90;4.27;;;;;;;23.22;53.84;100228.88;5068123;28;20798;-62
2023/07/04 09:52:14;;;;;;;10.10;4.47;;;;;;;23.22;53.59;100228.03;5055335;28;20456;-63
2023/07/04 09:54:40;;;;;;;7.00;4.00;;;;;;;23.22;52.85;100226.00;5057268;28;20424;-62
2023/07/04 09:57:20;;;;;;;7.63;4.47;;;;;;;23.23;52.76;100224.75;5075763;28;20424;-62
2023/07/04 09:59:45;;;;;;;9.60;4.83;;;;;;;23.23;53.20;100213.22;5071995;28;20285;-63
2023/07/04 10:02:33;;;;;;;8.23;4.00;;;;;;;23.26;52.42;100220.22;5072474;28;20551;-62
2023/07/04 10:04:58;;;;;;;13.90;4.60;;;;;;;23.25;52.44;100222.31;5070707;28;20285;-63
2023/07/04 10:07:24;;;;;;;6.50;3.80;;;;;;;23.24;51.96;100220.63;5069460;28;20548;-63
2023/07/04 10:09:54;;;;;;;9.73;4.27;;;;;;;23.24;51.96;100223.50;5073975;28;20571;-62
2023/07/04 10:12:20;;;;;;;7.83;4.30;;;;;;;23.26;51.93;100217.34;5087194;28;20178;-62
2023/07/04 10:14:53;;;;;;;8.40;4.30;;;;;;;23.24;51.86;100214.06;5055237;28;20529;-62
2023/07/04 10:17:28;;;;;;;10.30;4.30;;;;;;;23.25;51.75;100216.53;5085502;28;20229;-62
2023/07/04 10:19:59;;;;;;;9.03;4.20;;;;;;;23.25;51.74;100216.53;5070198;28;20456;-63
2023/07/04 10:22:32;;;;;;;7.37;4.70;;;;;;;23.23;51.71;100213.22;5055151;28;20433;-62
2023/07/04 10:24:58;;;;;;;10.40;4.70;;;;;;;23.25;51.52;100212.81;5073195;28;20435;-62
2023/07/04 10:27:37;;;;;;;11.73;4.83;;;;;;;23.25;51.50;100205.03;5069461;28;20439;-63
2023/07/04 10:30:07;;;;;;;9.67;4.73;;;;;;;23.26;51.62;100206.66;5042180;28;20984;-62
2023/07/04 10:32:41;;;;;;;10.43;4.87;;;;;;;23.29;51.50;100202.13;5052433;28;20437;-62
2023/07/04 10:35:12;;;;;;;9.47;4.53;;;;;;;23.26;51.64;100198.00;5079780;28;20459;-62
2023/07/04 10:37:37;;;;;;;8.20;4.73;;;;;;;23.27;51.59;100193.88;5052507;28;20437;-62
2023/07/04 10:40:05;;;;;;;8.50;4.40;;;;;;;23.27;51.29;100196.78;5058852;28;20480;-62
2023/07/04 10:42:38;;;;;;;8.23;4.43;;;;;;;23.30;51.27;100195.13;5057742;28;20214;-62
2023/07/04 10:45:04;;;;;;;8.73;4.87;;;;;;;23.29;51.16;100190.59;5071212;28;20435;-62
2023/07/04 10:47:35;;;;;;;10.00;4.67;;;;;;;23.28;50.95;100192.66;5066029;28;20540;-62
2023/07/04 10:50:22;;;;;;;11.50;4.63;;;;;;;23.29;50.93;100202.13;5069825;28;20429;-63
2023/07/04 10:52:48;;;;;;;9.70;4.37;;;;;;;23.27;51.28;100193.88;5086190;28;21072;-62
2023/07/04 10:55:22;;;;;;;12.83;4.90;;;;;;;23.27;51.20;100191.00;5054433;28;20425;-62
2023/07/04 10:57:56;;;;;;;11.17;4.47;;;;;;;23.28;50.72;100186.88;5065099;28;20194;-62
2023/07/04 11:00:31;;;;;;;9.40;4.43;;;;;;;23.29;51.09;100187.72;5037110;28;20564;-62
2023/07/04 11:03:25;;;;;;;7.10;4.17;;;;;;;23.28;50.80;100188.97;5031021;28;20477;-63
2023/07/04 11:05:51;;;;;;;8.53;4.63;;;;;;;23.31;50.41;100186.06;5042088;28;20488;-62
2023/07/04 11:08:18;;;;;;;8.83;4.10;;;;;;;23.32;50.15;100181.94;5048057;28;20464;-62
2023/07/04 11:10:45;;;;;;;7.17;4.63;;;;;;;23.31;50.10;100174.53;5045390;28;20484;-62
2023/07/04 11:13:15;;;;;;;10.33;5.10;;;;;;;23.32;50.20;100179.06;5045787;28;21078;-62
2023/07/04 11:15:42;;;;;;;7.83;4.43;;;;;;;23.34;50.04;100172.88;5046593;28;20437;-63
2023/07/04 11:18:09;;;;;;;9.67;4.83;;;;;;;23.35;49.31;100172.47;5047595;28;20848;-62
2023/07/04 11:20:40;;;;;;;11.60;4.90;;;;;;;23.34;49.99;100173.69;5046918;28;20489;-62
2023/07/04 11:23:13;;;;;;;9.53;4.50;;;;;;;23.36;49.68;100171.22;5048847;28;20475;-62
2023/07/04 11:25:42;;;;;;;11.23;5.33;;;;;;;23.36;49.77;100179.88;5047161;28;20790;-62
2023/07/04 11:28:18;;;;;;;7.77;4.70;;;;;;;23.34;49.79;100175.75;5048399;28;20422;-62